Time;durP1;ratioP1;P1;durP2;ratioP2;P2;SDS_P1;SDS_P2;PMS_P1;PMS_P2;Temp;Humidity;BMP_temperature;BMP_pressure;BME280_temperature;BME280_humidity;BME280_pressure;Samples;Min_cycle;Max_cycle;Signal;HPM_P1;HPM_P2
2023/11/02 00:02:35;;;;;;;2.80;1.77;;;;;;;11.24;72.22;96773.56;5067022;28;20086;-72
2023/11/02 00:05:01;;;;;;;4.10;2.00;;;;;;;11.13;73.01;96780.13;5052937;28;20040;-71
2023/11/02 00:07:27;;;;;;;2.80;1.92;;;;;;;10.90;73.07;96742.03;5085710;28;20029;-72
2023/11/02 00:09:59;;;;;;;2.75;2.03;;;;;;;11.09;73.02;96772.59;5064952;28;20419;-71
2023/11/02 00:12:28;;;;;;;3.22;1.70;;;;;;;11.05;73.09;96751.91;5060519;28;20123;-71
2023/11/02 00:14:54;;;;;;;3.15;1.80;;;;;;;11.04;73.21;96748.41;5073220;28;20383;-72
2023/11/02 00:17:35;;;;;;;2.72;1.80;;;;;;;10.97;72.63;96747.91;5085330;28;20040;-72
2023/11/02 00:20:18;;;;;;;2.90;2.00;;;;;;;10.95;72.88;96733.13;5071468;28;20115;-72
2023/11/02 00:22:44;;;;;;;3.83;2.03;;;;;;;10.96;73.03;96721.28;5047690;28;20055;-72
2023/11/02 00:25:13;;;;;;;3.75;1.70;;;;;;;10.92;73.01;96721.00;5064342;28;20027;-72
2023/11/02 00:27:39;;;;;;;2.72;1.77;;;;;;;10.85;72.68;96722.44;5090555;28;20035;-72
2023/11/02 00:30:06;;;;;;;3.30;2.08;;;;;;;10.89;72.94;96729.69;5073539;28;20501;-72
2023/11/02 00:32:32;;;;;;;3.28;2.00;;;;;;;10.80;73.06;96719.78;5056818;28;20202;-72
2023/11/02 00:34:57;;;;;;;4.65;2.30;;;;;;;10.82;72.37;96729.19;5086730;28;20115;-73
2023/11/02 00:37:23;;;;;;;3.90;2.30;;;;;;;10.88;72.81;96722.69;5040066;28;20449;-73
2023/11/02 00:39:48;;;;;;;2.90;2.20;;;;;;;10.86;72.82;96727.53;5059987;28;20062;-73
2023/11/02 00:42:15;;;;;;;4.45;1.90;;;;;;;10.88;72.43;96711.91;5056638;28;20055;-73
2023/11/02 00:44:41;;;;;;;1.98;1.70;;;;;;;10.90;72.31;96715.13;5053055;28;20017;-72
2023/11/02 00:47:06;;;;;;;2.75;1.70;;;;;;;10.82;72.46;96704.97;5065109;28;20036;-73
2023/11/02 00:49:32;;;;;;;1.75;1.50;;;;;;;10.79;72.41;96702.81;5045472;28;20031;-73
2023/11/02 00:52:00;;;;;;;2.15;1.50;;;;;;;10.89;72.15;96702.75;5065171;28;20040;-71
2023/11/02 00:54:59;;;;;;;3.35;1.50;;;;;;;10.80;71.82;96693.69;5080919;28;20383;-71
2023/11/02 00:57:28;;;;;;;2.90;1.50;;;;;;;10.80;71.76;96666.75;5056835;28;20114;-72
2023/11/02 00:59:55;;;;;;;3.05;1.50;;;;;;;10.88;71.85;96684.97;5048387;28;20582;-73
2023/11/02 01:02:21;;;;;;;4.57;1.63;;;;;;;10.84;71.97;96675.84;5043171;28;20071;-72
2023/11/02 01:04:47;;;;;;;4.25;1.30;;;;;;;10.82;72.06;96669.94;5074617;28;20115;-72
2023/11/02 01:07:14;;;;;;;3.35;1.50;;;;;;;10.80;71.91;96669.44;5056804;28;20024;-73
2023/11/02 01:09:45;;;;;;;3.10;1.38;;;;;;;10.84;71.57;96665.09;5053275;28;20474;-73
2023/11/02 01:12:32;;;;;;;3.70;1.45;;;;;;;10.78;71.80;96663.50;5076731;28;20040;-73
2023/11/02 01:14:58;;;;;;;1.60;1.33;;;;;;;10.82;71.88;96653.00;5045737;28;20502;-73
2023/11/02 01:17:27;;;;;;;2.15;1.27;;;;;;;10.82;71.70;96643.03;5027108;28;20191;-73
2023/11/02 01:20:06;;;;;;;2.35;1.38;;;;;;;10.82;71.48;96631.44;5074541;28;20450;-71
2023/11/02 01:22:34;;;;;;;1.95;1.75;;;;;;;10.81;71.75;96619.88;5043968;28;20081;-72
2023/11/02 01:25:11;;;;;;;2.83;1.48;;;;;;;10.69;71.81;96605.19;5072045;28;20031;-72
2023/11/02 01:27:36;;;;;;;5.18;1.38;;;;;;;10.63;72.09;96601.72;5049307;28;20119;-72
2023/11/02 01:30:30;;;;;;;1.70;1.30;;;;;;;10.77;72.04;96591.09;5040352;28;20131;-73
2023/11/02 01:32:55;;;;;;;2.72;1.40;;;;;;;10.70;72.08;96575.28;5087592;28;20082;-73
2023/11/02 01:35:43;;;;;;;1.17;1.00;;;;;;;10.74;71.79;96584.38;5039260;28;20480;-73
2023/11/02 01:38:13;;;;;;;2.58;1.35;;;;;;;10.68;72.04;96577.47;5055568;28;20044;-71
2023/11/02 01:40:52;;;;;;;3.08;1.30;;;;;;;10.60;72.06;96570.00;5023232;28;20035;-73
2023/11/02 01:43:43;;;;;;;3.40;1.25;;;;;;;10.63;72.00;96572.13;5062303;28;20043;-73
2023/11/02 01:46:15;;;;;;;2.25;1.30;;;;;;;10.55;72.08;96556.56;5073233;28;20031;-73
2023/11/02 01:48:47;;;;;;;3.15;1.05;;;;;;;10.61;72.39;96566.22;5039480;28;20047;-73
2023/11/02 01:51:18;;;;;;;1.63;1.30;;;;;;;10.60;72.16;96548.47;5073631;28;20036;-72
2023/11/02 01:53:46;;;;;;;3.58;1.27;;;;;;;10.53;72.97;96542.59;5047273;28;20029;-71
2023/11/02 01:56:30;;;;;;;1.67;1.17;;;;;;;10.52;72.35;96535.63;5045627;28;20383;-72
2023/11/02 01:59:03;;;;;;;1.60;1.50;;;;;;;10.53;72.90;96537.22;5059129;28;20093;-72
2023/11/02 02:01:32;;;;;;;1.25;1.15;;;;;;;10.51;72.93;96528.63;5059177;28;20043;-71
2023/11/02 02:04:11;;;;;;;2.30;1.42;;;;;;;10.40;72.89;96511.00;5043077;28;20029;-72
2023/11/02 02:06:40;;;;;;;1.80;1.33;;;;;;;10.46;72.83;96530.56;5056097;28;20035;-71
2023/11/02 02:09:19;;;;;;;3.60;1.70;;;;;;;10.45;72.92;96524.41;5055440;28;20031;-71
2023/11/02 02:12:08;;;;;;;3.05;1.70;;;;;;;10.43;73.04;96515.81;5051879;28;20028;-72
2023/11/02 02:14:40;;;;;;;4.15;1.40;;;;;;;10.40;72.84;96509.09;5056022;28;20028;-72
2023/11/02 02:17:28;;;;;;;3.53;1.30;;;;;;;10.36;72.92;96493.81;5086888;28;20119;-72
2023/11/02 02:19:58;;;;;;;2.90;1.30;;;;;;;10.33;73.23;96484.41;5055330;28;20562;-72
2023/11/02 02:22:27;;;;;;;1.92;1.33;;;;;;;10.28;73.22;96470.19;5043159;28;20033;-72
2023/11/02 02:25:10;;;;;;;3.20;1.48;;;;;;;10.34;73.02;96467.16;5049551;28;20028;-72
2023/11/02 02:28:09;;;;;;;1.70;1.40;;;;;;;10.32;73.46;96461.28;5039159;28;20040;-71
2023/11/02 02:31:13;;;;;;;4.55;1.30;;;;;;;10.29;73.17;96459.16;5081607;28;20399;-71
2023/11/02 02:33:47;;;;;;;2.28;1.48;;;;;;;10.29;73.49;96463.75;5062397;28;20045;-70
2023/11/02 02:36:18;;;;;;;4.47;1.60;;;;;;;10.30;73.23;96462.66;5068424;28;20032;-70
2023/11/02 02:38:58;;;;;;;2.30;1.35;;;;;;;10.24;73.24;96447.66;5055289;28;20041;-70
2023/11/02 02:41:24;;;;;;;2.35;1.63;;;;;;;10.29;73.40;96463.75;5068612;28;20093;-70
2023/11/02 02:43:54;;;;;;;3.67;1.50;;;;;;;10.21;73.29;96461.66;5083371;28;20402;-70
2023/11/02 02:46:22;;;;;;;1.77;1.60;;;;;;;10.20;73.47;96446.59;5091876;28;20035;-71
2023/11/02 02:48:48;;;;;;;3.33;1.70;;;;;;;10.22;73.64;96460.59;5074883;28;20483;-71
2023/11/02 02:51:15;;;;;;;1.90;1.38;;;;;;;10.21;73.33;96443.66;5070566;28;20060;-70
2023/11/02 02:53:42;;;;;;;2.17;1.50;;;;;;;10.25;73.35;96455.44;5065618;28;20059;-70
2023/11/02 02:56:08;;;;;;;2.67;1.40;;;;;;;10.17;73.52;96431.84;5070037;28;20029;-70
2023/11/02 02:58:38;;;;;;;2.85;1.35;;;;;;;10.25;73.38;96449.25;5046254;28;20025;-70
2023/11/02 03:01:07;;;;;;;2.25;1.60;;;;;;;10.19;73.15;96447.69;5060106;28;20040;-72
2023/11/02 03:03:33;;;;;;;2.55;1.80;;;;;;;10.15;73.52;96439.38;5056680;23;20416;-70
2023/11/02 03:05:59;;;;;;;1.98;1.52;;;;;;;10.20;73.32;96441.22;5048108;28;20029;-70
2023/11/02 03:08:26;;;;;;;3.97;1.60;;;;;;;10.18;73.47;96427.25;5034621;28;20103;-70
2023/11/02 03:10:52;;;;;;;2.25;1.38;;;;;;;10.17;73.44;96412.22;5022019;28;20128;-71
2023/11/02 03:13:17;;;;;;;4.25;1.60;;;;;;;10.14;73.54;96402.03;5026673;28;20108;-69
2023/11/02 03:15:44;;;;;;;2.72;1.55;;;;;;;10.07;73.86;96388.06;5033728;28;20067;-71
2023/11/02 03:18:12;;;;;;;2.55;1.30;;;;;;;10.15;73.46;96387.50;5042675;28;20139;-69
2023/11/02 03:20:38;;;;;;;2.67;1.60;;;;;;;10.13;73.49;96381.56;5034230;28;20439;-70
2023/11/02 03:23:35;;;;;;;3.13;1.50;;;;;;;10.11;73.48;96372.97;5051278;28;20029;-70
2023/11/02 03:26:06;;;;;;;2.13;1.27;;;;;;;10.13;73.32;96365.44;5041883;28;20088;-71
2023/11/02 03:28:43;;;;;;;3.25;1.38;;;;;;;10.16;73.17;96359.50;5030685;28;20484;-71
2023/11/02 03:31:18;;;;;;;3.95;1.30;;;;;;;10.17;73.08;96345.78;5027468;28;20033;-70
2023/11/02 03:33:55;;;;;;;3.40;1.67;;;;;;;10.15;72.86;96328.31;5017319;28;20133;-70
2023/11/02 03:36:38;;;;;;;5.28;1.33;;;;;;;10.09;72.80;96305.22;5056820;28;20040;-71
2023/11/02 03:39:38;;;;;;;1.50;1.15;;;;;;;10.19;72.75;96307.81;5041983;28;20036;-70
2023/11/02 03:42:22;;;;;;;3.78;1.20;;;;;;;10.20;72.56;96310.22;5023927;28;20037;-71
2023/11/02 03:44:58;;;;;;;1.52;1.10;;;;;;;10.17;72.75;96302.75;5051487;28;20168;-70
2023/11/02 03:47:30;;;;;;;3.17;1.60;;;;;;;10.15;72.31;96304.13;5047258;28;20089;-69
2023/11/02 03:50:21;;;;;;;3.60;1.48;;;;;;;10.07;72.30;96299.34;5067463;28;20032;-70
2023/11/02 03:53:03;;;;;;;2.00;1.42;;;;;;;10.01;72.28;96292.44;5049333;28;20040;-71
2023/11/02 03:55:35;;;;;;;4.32;1.90;;;;;;;9.95;73.10;96293.56;5027891;28;20063;-70
2023/11/02 03:58:22;;;;;;;2.50;1.60;;;;;;;9.98;72.78;96287.59;5059270;28;20094;-69
2023/11/02 04:00:54;;;;;;;3.33;1.70;;;;;;;9.93;72.97;96274.22;5057542;28;20514;-69
2023/11/02 04:03:20;;;;;;;1.77;1.30;;;;;;;9.97;72.98;96272.56;5030994;28;20538;-70
2023/11/02 04:05:47;;;;;;;1.85;1.23;;;;;;;9.92;73.14;96251.13;5012089;28;20014;-71
2023/11/02 04:08:18;;;;;;;2.10;1.15;;;;;;;10.00;72.75;96250.47;5020254;28;20047;-70
2023/11/02 04:10:59;;;;;;;3.28;1.25;;;;;;;9.98;72.87;96244.59;5028928;28;20468;-70
2023/11/02 04:13:48;;;;;;;2.35;1.33;;;;;;;9.95;72.74;96234.41;5011966;28;20045;-71
2023/11/02 04:16:13;;;;;;;3.90;1.50;;;;;;;9.99;72.86;96216.63;5031303;28;20503;-72
2023/11/02 04:18:39;;;;;;;3.22;1.15;;;;;;;9.93;73.16;96204.31;5006509;28;20025;-72
2023/11/02 04:21:05;;;;;;;2.72;1.70;;;;;;;9.99;72.98;96203.19;5020865;28;20136;-70
2023/11/02 04:23:30;;;;;;;2.75;1.15;;;;;;;10.01;72.94;96211.75;5029510;28;20072;-70
2023/11/02 04:25:56;;;;;;;2.42;1.20;;;;;;;10.03;72.97;96218.44;5031069;28;20047;-70
2023/11/02 04:28:22;;;;;;;2.88;1.40;;;;;;;10.04;72.96;96200.41;5034385;28;20033;-70
2023/11/02 04:30:48;;;;;;;2.58;1.58;;;;;;;10.03;72.75;96198.81;5036974;28;20041;-70
2023/11/02 04:33:13;;;;;;;1.95;1.30;;;;;;;10.04;72.61;96181.56;5013301;28;20028;-70
2023/11/02 04:35:41;;;;;;;3.17;1.50;;;;;;;10.07;72.84;96172.94;5013359;28;20037;-70
2023/11/02 04:38:08;;;;;;;2.47;1.25;;;;;;;10.05;72.75;96165.16;5032262;28;20108;-70
2023/11/02 04:40:34;;;;;;;2.63;1.60;;;;;;;10.03;72.65;96156.59;5035986;28;20154;-71
2023/11/02 04:43:00;;;;;;;3.30;1.60;;;;;;;9.94;73.04;96146.78;5019483;28;20028;-69
2023/11/02 04:45:26;;;;;;;3.20;1.63;;;;;;;9.94;72.96;96136.03;5053331;28;20120;-70
2023/11/02 04:47:52;;;;;;;3.22;1.40;;;;;;;9.98;72.90;96134.34;5035716;28;20761;-70
2023/11/02 04:50:20;;;;;;;2.25;1.63;;;;;;;9.96;73.08;96139.22;5046067;28;20116;-70
2023/11/02 04:52:45;;;;;;;1.60;1.20;;;;;;;9.90;72.75;96134.97;5030617;28;20172;-69
2023/11/02 04:55:11;;;;;;;3.33;1.42;;;;;;;9.81;73.10;96139.41;5022408;28;20483;-69
2023/11/02 04:57:37;;;;;;;1.90;1.30;;;;;;;9.73;73.28;96138.19;5040230;28;20021;-70
2023/11/02 05:00:03;;;;;;;3.00;1.40;;;;;;;9.72;73.27;96142.75;5024532;28;20037;-70
2023/11/02 05:02:30;;;;;;;4.47;1.48;;;;;;;9.65;73.53;96128.06;5035372;28;20025;-71
2023/11/02 05:04:55;;;;;;;1.70;1.30;;;;;;;9.72;73.30;96129.31;5072898;28;20036;-70
2023/11/02 05:07:21;;;;;;;3.05;1.33;;;;;;;9.73;73.47;96132.81;5038616;28;20089;-71
2023/11/02 05:09:46;;;;;;;2.70;1.27;;;;;;;9.66;73.57;96135.84;5055275;28;20107;-70
2023/11/02 05:12:12;;;;;;;3.90;1.20;;;;;;;9.55;73.74;96131.69;5071698;28;20040;-70
2023/11/02 05:14:37;;;;;;;2.75;1.40;;;;;;;9.52;73.49;96123.41;5044031;28;20116;-71
2023/11/02 05:17:03;;;;;;;2.05;1.33;;;;;;;9.44;73.66;96108.72;5051619;28;20039;-71
2023/11/02 05:19:28;;;;;;;2.95;1.40;;;;;;;9.51;73.96;96114.56;5035214;28;20385;-71
2023/11/02 05:21:53;;;;;;;3.05;1.33;;;;;;;9.52;73.99;96129.56;5034773;28;20569;-70
2023/11/02 05:24:19;;;;;;;3.20;1.50;;;;;;;9.47;74.42;96140.41;5063545;28;20056;-70
2023/11/02 05:26:44;;;;;;;3.25;1.80;;;;;;;9.36;74.43;96136.22;5056184;28;20034;-70
2023/11/02 05:29:10;;;;;;;2.67;2.40;;;;;;;9.40;74.67;96139.94;5057387;28;20090;-71
2023/11/02 05:31:36;;;;;;;6.53;5.75;;;;;;;9.40;74.74;96134.56;5075044;28;20104;-71
2023/11/02 05:34:02;;;;;;;2.70;2.50;;;;;;;9.36;75.24;96122.78;5054365;28;20055;-71
2023/11/02 05:36:27;;;;;;;4.95;4.00;;;;;;;9.32;75.32;96124.44;5055477;28;20021;-71
2023/11/02 05:38:52;;;;;;;4.93;4.30;;;;;;;9.43;75.41;96133.97;5074050;28;20466;-72
2023/11/02 05:41:18;;;;;;;8.82;5.75;;;;;;;9.33;75.67;96126.06;5056280;28;20016;-72
2023/11/02 05:43:43;;;;;;;4.47;3.53;;;;;;;9.40;75.89;96141.81;5066922;28;20112;-72
2023/11/02 05:46:09;;;;;;;4.75;2.30;;;;;;;9.31;76.33;96144.31;5041886;28;20025;-72
2023/11/02 05:48:34;;;;;;;4.32;2.70;;;;;;;9.27;76.21;96143.31;5063538;28;20499;-72
2023/11/02 05:51:00;;;;;;;4.05;2.28;;;;;;;9.28;76.82;96139.56;5063962;28;20021;-71
2023/11/02 05:53:25;;;;;;;5.47;2.80;;;;;;;9.33;76.90;96144.88;5053416;28;20041;-71
2023/11/02 05:55:50;;;;;;;12.00;3.00;;;;;;;9.36;76.90;96136.22;5048781;28;20075;-71
2023/11/02 05:58:16;;;;;;;3.63;2.80;;;;;;;9.31;76.82;96098.66;5053741;28;20040;-71
2023/11/02 06:00:41;;;;;;;8.07;6.93;;;;;;;9.44;77.17;96107.91;5048241;28;20147;-71
2023/11/02 06:03:07;;;;;;;5.38;3.80;;;;;;;9.46;77.03;96098.50;5053448;28;20036;-71
2023/11/02 06:05:33;;;;;;;3.80;3.47;;;;;;;9.44;76.97;96089.13;5053256;28;20033;-71
2023/11/02 06:07:58;;;;;;;3.67;3.00;;;;;;;9.59;76.83;96097.75;5045286;28;20372;-70
2023/11/02 06:10:23;;;;;;;4.88;4.20;;;;;;;9.65;76.86;96093.13;5073630;28;20574;-70
2023/11/02 06:12:49;;;;;;;7.50;4.60;;;;;;;9.60;77.34;96077.88;5073350;28;20047;-71
2023/11/02 06:15:14;;;;;;;5.07;3.47;;;;;;;9.69;76.86;96078.81;5039342;28;20028;-71
2023/11/02 06:17:40;;;;;;;5.38;3.00;;;;;;;9.67;76.61;96075.63;5040916;28;20041;-71
2023/11/02 06:20:06;;;;;;;3.42;2.75;;;;;;;9.78;76.62;96078.19;5035532;28;20024;-70
2023/11/02 06:22:32;;;;;;;5.93;2.88;;;;;;;9.79;76.69;96069.00;5052060;28;20033;-70
2023/11/02 06:24:57;;;;;;;10.25;3.30;;;;;;;9.79;76.81;96060.94;5052911;28;20075;-71
2023/11/02 06:27:23;;;;;;;4.68;3.10;;;;;;;9.75;76.64;96041.94;5043833;28;20037;-72
2023/11/02 06:29:48;;;;;;;7.68;3.40;;;;;;;9.82;76.42;96036.19;5055341;28;20020;-70
2023/11/02 06:32:13;;;;;;;10.57;4.55;;;;;;;9.81;76.46;96018.44;5053035;28;20128;-70
2023/11/02 06:34:39;;;;;;;6.22;3.72;;;;;;;9.89;76.39;96001.66;5052622;28;20443;-70
2023/11/02 06:37:11;;;;;;;4.45;3.03;;;;;;;9.77;76.45;95969.06;5053090;28;20040;-70
2023/11/02 06:39:37;;;;;;;3.17;2.72;;;;;;;9.79;76.25;95962.31;5037617;28;20040;-71
2023/11/02 06:42:05;;;;;;;3.78;2.60;;;;;;;9.93;76.26;95983.84;5052961;28;20029;-71
2023/11/02 06:44:30;;;;;;;4.63;2.50;;;;;;;9.95;76.00;95987.84;5047338;28;20052;-70
2023/11/02 06:46:56;;;;;;;8.93;5.82;;;;;;;9.90;76.55;95998.66;5052927;28;20029;-70
2023/11/02 06:49:22;;;;;;;8.60;3.55;;;;;;;9.92;76.35;96009.94;5052765;28;20563;-72
2023/11/02 06:51:47;;;;;;;7.32;2.80;;;;;;;9.90;76.07;95998.66;5040524;28;20044;-71
2023/11/02 06:54:13;;;;;;;4.20;3.25;;;;;;;9.94;76.19;95988.16;5050150;28;20048;-71
2023/11/02 06:56:39;;;;;;;5.13;3.10;;;;;;;9.98;76.39;95997.22;5053850;28;20031;-71
2023/11/02 06:59:05;;;;;;;4.78;3.08;;;;;;;9.98;76.41;95999.91;5037917;28;20032;-71
2023/11/02 07:01:31;;;;;;;3.95;2.67;;;;;;;9.99;76.47;96002.28;5072529;28;20502;-71
2023/11/02 07:03:57;;;;;;;5.32;2.50;;;;;;;9.92;76.77;95998.41;5052976;28;20045;-71
2023/11/02 07:06:22;;;;;;;4.32;2.40;;;;;;;9.82;77.72;95993.19;5044268;28;20021;-71
2023/11/02 07:08:48;;;;;;;5.93;2.33;;;;;;;9.80;77.51;96000.75;5058913;28;20492;-71
2023/11/02 07:11:14;;;;;;;3.67;2.20;;;;;;;9.68;77.10;96004.66;5060996;28;20533;-70
2023/11/02 07:13:40;;;;;;;2.80;2.28;;;;;;;9.69;77.51;95998.19;5051381;28;20036;-70
2023/11/02 07:16:06;;;;;;;4.25;2.80;;;;;;;9.80;77.64;96000.75;5050878;28;20418;-71
2023/11/02 07:18:31;;;;;;;6.15;2.88;;;;;;;9.80;77.56;95995.38;5052257;28;20041;-71
2023/11/02 07:20:57;;;;;;;5.82;3.13;;;;;;;9.83;77.38;95981.31;5052140;28;20036;-71
2023/11/02 07:23:22;;;;;;;5.40;3.50;;;;;;;9.90;77.79;95963.72;5038433;28;20119;-71
2023/11/02 07:25:47;;;;;;;7.55;5.00;;;;;;;9.99;77.94;95967.31;5022627;28;20029;-71
2023/11/02 07:28:13;;;;;;;5.22;2.75;;;;;;;10.00;77.74;95973.50;5051928;28;20138;-71
2023/11/02 07:30:38;;;;;;;4.43;3.00;;;;;;;9.98;78.10;95981.06;5022991;28;20029;-71
2023/11/02 07:33:03;;;;;;;4.55;3.28;;;;;;;10.00;78.22;95963.56;5051894;28;20212;-72
2023/11/02 07:35:29;;;;;;;6.55;5.88;;;;;;;10.09;77.98;95959.09;5051487;28;20396;-71
2023/11/02 07:37:54;;;;;;;7.70;6.90;;;;;;;10.13;77.94;95959.31;5051807;28;20041;-71
2023/11/02 07:40:20;;;;;;;9.45;4.43;;;;;;;10.09;77.55;95959.09;5051880;28;20025;-72
2023/11/02 07:42:45;;;;;;;4.75;3.13;;;;;;;10.18;77.73;95972.69;5048865;28;20392;-71
2023/11/02 07:45:11;;;;;;;4.15;3.10;;;;;;;10.22;77.73;95981.78;5053622;28;20017;-71
2023/11/02 07:47:36;;;;;;;3.65;3.30;;;;;;;10.24;77.04;95976.91;5071622;28;20064;-72
2023/11/02 07:50:03;;;;;;;4.55;3.20;;;;;;;10.19;77.40;95944.69;5053865;28;20032;-71
2023/11/02 07:52:29;;;;;;;3.13;2.67;;;;;;;10.21;77.31;95969.41;5039139;28;20104;-72
2023/11/02 07:54:57;;;;;;;4.63;2.83;;;;;;;10.11;78.09;95988.38;5038017;28;20539;-71
2023/11/02 07:57:23;;;;;;;3.92;3.30;;;;;;;10.03;78.93;95994.44;5034084;28;20040;-71
2023/11/02 07:59:50;;;;;;;3.50;2.97;;;;;;;10.07;78.46;95995.44;5038266;28;20459;-72
2023/11/02 08:02:16;;;;;;;7.07;3.58;;;;;;;10.08;78.06;95970.94;5051295;28;20037;-72
2023/11/02 08:04:41;;;;;;;2.55;2.33;;;;;;;10.09;78.13;95961.78;5049934;28;20032;-71
2023/11/02 08:07:07;;;;;;;2.97;2.67;;;;;;;10.23;77.60;95969.91;5051359;28;20040;-71
2023/11/02 08:09:33;;;;;;;125.53;58.40;;;;;;;10.13;77.86;95962.81;5037882;28;20036;-72
2023/11/02 08:11:59;;;;;;;215.43;108.05;;;;;;;10.19;78.51;95977.78;5033448;28;20071;-72
2023/11/02 08:14:24;;;;;;;141.88;76.53;;;;;;;10.20;78.15;96000.06;5038885;28;20021;-72
2023/11/02 08:16:50;;;;;;;70.43;37.60;;;;;;;10.13;78.76;95948.56;5061891;28;20506;-72
2023/11/02 08:19:15;;;;;;;75.68;38.83;;;;;;;10.25;78.49;95959.66;5033354;28;20035;-72
2023/11/02 08:21:42;;;;;;;82.20;39.63;;;;;;;10.34;78.33;95984.75;5042495;28;20043;-71
2023/11/02 08:24:08;;;;;;;92.75;52.75;;;;;;;10.20;79.28;95962.41;5016585;28;20039;-72
2023/11/02 08:26:34;;;;;;;37.40;21.80;;;;;;;10.18;79.76;95975.38;5033577;28;20086;-71
2023/11/02 08:28:59;;;;;;;16.83;10.23;;;;;;;10.10;79.95;95987.59;5051179;28;20028;-71
2023/11/02 08:31:27;;;;;;;10.30;6.05;;;;;;;10.19;79.53;95967.03;5024436;28;20175;-73
2023/11/02 08:33:52;;;;;;;11.35;6.32;;;;;;;10.25;80.00;95954.25;5037515;28;20021;-72
2023/11/02 08:36:19;;;;;;;10.73;6.88;;;;;;;10.30;79.82;95946.91;5037187;28;20056;-72
2023/11/02 08:38:45;;;;;;;11.43;8.40;;;;;;;10.38;79.69;95929.28;5036559;28;20510;-72
2023/11/02 08:41:29;;;;;;;8.55;5.30;;;;;;;10.44;80.00;95930.78;5033319;28;20045;-72
2023/11/02 08:43:56;;;;;;;5.13;4.22;;;;;;;10.41;80.15;95934.84;5050567;28;20124;-72
2023/11/02 08:46:22;;;;;;;7.55;4.90;;;;;;;10.42;80.90;95959.88;5047573;28;20070;-72
2023/11/02 08:48:49;;;;;;;6.80;5.55;;;;;;;10.37;81.43;95946.50;5033266;28;20043;-72
2023/11/02 08:51:16;;;;;;;5.97;4.75;;;;;;;10.45;81.07;95953.09;5050677;28;20029;-72
2023/11/02 08:53:42;;;;;;;5.35;4.10;;;;;;;10.32;82.34;95976.19;5070578;28;20036;-72
2023/11/02 08:56:09;;;;;;;4.45;3.97;;;;;;;10.23;83.17;95972.59;5053130;28;20548;-72
2023/11/02 08:58:42;;;;;;;5.68;4.75;;;;;;;10.27;82.78;95968.22;5053169;28;20032;-72
2023/11/02 09:01:08;;;;;;;8.93;5.63;;;;;;;10.25;82.76;95965.81;5036460;28;20071;-71
2023/11/02 09:03:34;;;;;;;6.18;5.43;;;;;;;10.29;82.30;95944.53;5052498;28;20456;-71
2023/11/02 09:06:00;;;;;;;5.90;5.30;;;;;;;10.36;82.48;95955.69;5069321;28;20039;-71
2023/11/02 09:08:25;;;;;;;6.40;5.25;;;;;;;10.34;82.55;95947.09;5032937;28;20025;-72
2023/11/02 09:10:51;;;;;;;6.93;5.13;;;;;;;10.36;82.82;95934.16;5050513;28;20052;-72
2023/11/02 09:13:16;;;;;;;8.43;5.72;;;;;;;10.29;83.20;95928.38;5071311;22;20034;-73
2023/11/02 09:15:42;;;;;;;9.38;5.40;;;;;;;10.35;82.87;95906.47;5012013;28;20041;-74
2023/11/02 09:18:08;;;;;;;6.60;5.88;;;;;;;10.36;83.01;95899.97;4987205;28;20040;-74
2023/11/02 09:20:33;;;;;;;7.22;5.88;;;;;;;10.40;83.00;95889.41;5006075;28;20034;-74
2023/11/02 09:22:59;;;;;;;8.75;6.10;;;;;;;10.37;83.36;95898.09;5011371;28;20026;-74
2023/11/02 09:25:24;;;;;;;9.80;6.30;;;;;;;10.48;83.27;95920.22;4958378;28;20503;-74
2023/11/02 09:27:51;;;;;;;7.75;6.82;;;;;;;10.40;83.40;95914.44;4992730;28;20081;-75
2023/11/02 09:30:17;;;;;;;8.40;6.70;;;;;;;10.35;83.62;95894.91;4993740;28;20523;-74
2023/11/02 09:32:42;;;;;;;13.50;8.18;;;;;;;10.36;83.83;95889.22;4978116;28;20084;-75
2023/11/02 09:35:08;;;;;;;10.45;7.78;;;;;;;10.44;83.65;95903.88;4991760;28;20049;-73
2023/11/02 09:37:33;;;;;;;8.57;7.35;;;;;;;10.50;83.91;95896.50;4993745;28;20113;-72
2023/11/02 09:39:59;;;;;;;9.57;7.82;;;;;;;10.50;84.24;95913.44;4982626;28;20407;-71
2023/11/02 09:42:24;;;;;;;8.77;7.85;;;;;;;10.48;84.34;95904.84;4998413;28;20069;-71
2023/11/02 09:44:49;;;;;;;9.90;7.38;;;;;;;10.60;84.37;95902.47;4979588;28;20034;-72
2023/11/02 09:47:15;;;;;;;7.82;6.38;;;;;;;10.54;84.51;95897.47;4981967;28;20507;-71
2023/11/02 09:49:41;;;;;;;7.70;6.75;;;;;;;10.63;84.61;95896.47;4979520;28;20076;-73
2023/11/02 09:52:07;;;;;;;7.18;6.03;;;;;;;10.60;84.13;95880.94;4981784;28;20485;-73
2023/11/02 09:54:33;;;;;;;7.32;5.28;;;;;;;10.58;84.50;95868.88;4986742;28;20666;-72
2023/11/02 09:56:59;;;;;;;5.63;4.63;;;;;;;10.56;84.46;95861.09;4990332;28;20049;-72
2023/11/02 09:59:25;;;;;;;7.13;5.43;;;;;;;10.64;84.27;95849.63;4992675;28;20041;-72
2023/11/02 10:01:50;;;;;;;6.25;4.65;;;;;;;10.48;84.62;95832.19;4981480;28;20030;-73
2023/11/02 10:04:16;;;;;;;5.55;5.05;;;;;;;10.64;84.11;95841.53;4986760;28;20089;-73
2023/11/02 10:06:41;;;;;;;6.47;4.93;;;;;;;10.73;84.54;95839.75;4963145;28;20022;-72
2023/11/02 10:09:08;;;;;;;5.97;4.50;;;;;;;10.70;84.35;95818.00;4987142;28;20124;-72
2023/11/02 10:11:34;;;;;;;5.28;4.22;;;;;;;10.77;84.14;95811.13;4977676;28;20025;-72
2023/11/02 10:14:04;;;;;;;4.90;4.40;;;;;;;10.77;84.24;95800.34;4975027;28;20080;-72
2023/11/02 10:16:29;;;;;;;4.85;4.22;;;;;;;10.78;84.11;95791.16;4954564;28;20026;-72
2023/11/02 10:18:55;;;;;;;4.15;3.40;;;;;;;10.81;84.05;95781.69;4985332;28;20064;-72
2023/11/02 10:21:21;;;;;;;4.05;3.53;;;;;;;10.83;84.24;95760.63;4983283;28;20022;-72
2023/11/02 10:23:46;;;;;;;4.13;3.40;;;;;;;10.87;84.40;95767.00;5004108;28;20042;-72
2023/11/02 10:26:12;;;;;;;7.28;3.40;;;;;;;10.96;83.65;95768.66;5003417;28;20018;-72
2023/11/02 10:28:37;;;;;;;4.93;3.58;;;;;;;10.95;83.87;95747.41;4984203;28;20481;-72
2023/11/02 10:31:04;;;;;;;3.60;3.30;;;;;;;10.99;84.02;95741.09;4981135;28;20030;-72
2023/11/02 10:33:30;;;;;;;6.55;3.47;;;;;;;11.03;83.91;95728.63;4991947;28;20075;-74
2023/11/02 10:35:55;;;;;;;3.20;2.70;;;;;;;11.04;83.79;95724.03;4993145;28;20022;-74
2023/11/02 10:38:20;;;;;;;2.50;2.30;;;;;;;11.07;83.29;95707.25;4992862;28;20055;-74
2023/11/02 10:40:47;;;;;;;3.13;2.83;;;;;;;11.16;83.33;95720.78;5061384;28;20025;-74
2023/11/02 10:43:19;;;;;;;3.92;2.70;;;;;;;11.25;82.80;95722.41;5009002;28;20036;-74
2023/11/02 10:45:48;;;;;;;3.90;2.53;;;;;;;11.32;82.87;95724.69;5008655;28;20493;-74
2023/11/02 10:48:17;;;;;;;4.00;2.40;;;;;;;11.38;82.64;95720.75;5077754;28;20053;-74
2023/11/02 10:50:47;;;;;;;3.17;2.53;;;;;;;11.42;82.26;95716.31;5009074;28;20060;-74
2023/11/02 10:53:45;;;;;;;2.88;2.20;;;;;;;11.51;81.90;95717.16;5060948;28;20511;-73
2023/11/02 10:56:21;;;;;;;3.55;2.67;;;;;;;11.54;82.13;95711.94;4992505;28;20037;-74
2023/11/02 10:58:51;;;;;;;2.85;2.25;;;;;;;11.61;82.18;95698.00;4986776;28;20057;-74
2023/11/02 11:01:18;;;;;;;2.05;1.85;;;;;;;11.62;82.77;95699.63;4974795;28;20034;-72
2023/11/02 11:03:45;;;;;;;2.30;2.10;;;;;;;11.58;83.09;95687.84;4981522;28;20485;-72
2023/11/02 11:06:12;;;;;;;2.22;2.03;;;;;;;11.56;82.73;95688.16;4962874;28;20107;-74
2023/11/02 11:08:38;;;;;;;2.95;2.22;;;;;;;11.56;82.83;95681.97;4964705;28;20033;-74
2023/11/02 11:11:05;;;;;;;2.13;1.90;;;;;;;11.74;82.75;95695.22;5038990;28;20041;-74
2023/11/02 11:13:31;;;;;;;2.40;2.10;;;;;;;11.77;82.92;95688.41;4961648;28;20036;-74
2023/11/02 11:15:57;;;;;;;2.80;2.00;;;;;;;11.71;82.79;95670.81;4998022;28;20400;-74
2023/11/02 11:18:24;;;;;;;3.05;2.60;;;;;;;11.77;82.62;95666.84;4945350;28;20022;-73
2023/11/02 11:20:49;;;;;;;2.38;2.00;;;;;;;11.83;82.57;95671.00;4973095;28;20511;-74
2023/11/02 11:23:15;;;;;;;3.67;3.05;;;;;;;11.85;82.59;95658.00;5003649;28;20101;-73
2023/11/02 11:25:58;;;;;;;4.30;3.20;;;;;;;11.87;82.28;95674.66;4991754;28;20114;-74
2023/11/02 11:28:29;;;;;;;6.28;4.20;;;;;;;11.90;83.26;95687.53;4992096;28;20048;-74
2023/11/02 11:30:55;;;;;;;4.82;3.50;;;;;;;11.84;83.83;95677.97;5008614;28;20042;-75
2023/11/02 11:33:47;;;;;;;6.90;3.78;;;;;;;11.92;83.73;95696.09;4991894;28;20032;-74
2023/11/02 11:36:28;;;;;;;5.22;4.03;;;;;;;11.94;84.02;95696.56;5009435;28;20499;-75
2023/11/02 11:38:55;;;;;;;13.20;7.88;;;;;;;11.97;84.22;95701.31;4992095;28;20046;-75
2023/11/02 11:41:41;;;;;;;18.77;10.82;;;;;;;11.99;83.97;95712.59;5009509;28;20619;-75
2023/11/02 11:44:09;;;;;;;9.43;6.03;;;;;;;11.86;84.46;95700.03;4990987;28;20034;-71